sensor_id;sensor_type;location;lat;lon;timestamp;P1;durP1;ratioP1;P2;durP2;ratioP2
32533;SDS011;18973;48.580;8.912;2024-01-15T00:00:18;30.73;;;13.90;;
32533;SDS011;18973;48.580;8.912;2024-01-15T00:02:44;27.95;;;14.50;;
32533;SDS011;18973;48.580;8.912;2024-01-15T00:05:10;32.50;;;14.57;;
32533;SDS011;18973;48.580;8.912;2024-01-15T00:07:35;32.17;;;14.07;;
32533;SDS011;18973;48.580;8.912;2024-01-15T00:10:01;30.33;;;13.63;;
32533;SDS011;18973;48.580;8.912;2024-01-15T00:12:27;36.25;;;15.82;;
32533;SDS011;18973;48.580;8.912;2024-01-15T00:14:53;33.33;;;13.32;;
32533;SDS011;18973;48.580;8.912;2024-01-15T00:17:19;27.98;;;12.80;;
32533;SDS011;18973;48.580;8.912;2024-01-15T00:19:45;31.67;;;13.18;;
32533;SDS011;18973;48.580;8.912;2024-01-15T00:22:10;30.75;;;13.23;;
32533;SDS011;18973;48.580;8.912;2024-01-15T00:24:36;29.38;;;14.13;;
32533;SDS011;18973;48.580;8.912;2024-01-15T00:27:02;30.63;;;14.48;;
32533;SDS011;18973;48.580;8.912;2024-01-15T00:29:27;27.48;;;13.40;;
32533;SDS011;18973;48.580;8.912;2024-01-15T00:31:56;31.38;;;14.35;;
32533;SDS011;18973;48.580;8.912;2024-01-15T00:34:22;26.98;;;14.23;;
32533;SDS011;18973;48.580;8.912;2024-01-15T00:36:47;28.98;;;12.88;;
32533;SDS011;18973;48.580;8.912;2024-01-15T00:39:13;29.10;;;13.10;;
32533;SDS011;18973;48.580;8.912;2024-01-15T00:41:39;24.30;;;12.82;;
32533;SDS011;18973;48.580;8.912;2024-01-15T00:44:04;28.95;;;13.18;;
32533;SDS011;18973;48.580;8.912;2024-01-15T00:46:30;26.50;;;12.98;;
32533;SDS011;18973;48.580;8.912;2024-01-15T00:48:56;30.00;;;13.27;;
32533;SDS011;18973;48.580;8.912;2024-01-15T00:51:21;19.70;;;12.10;;
32533;SDS011;18973;48.580;8.912;2024-01-15T00:53:47;24.58;;;11.77;;
32533;SDS011;18973;48.580;8.912;2024-01-15T00:56:13;28.38;;;12.93;;
32533;SDS011;18973;48.580;8.912;2024-01-15T00:58:38;27.30;;;13.13;;
32533;SDS011;18973;48.580;8.912;2024-01-15T01:01:04;20.60;;;12.40;;
32533;SDS011;18973;48.580;8.912;2024-01-15T01:03:30;25.48;;;12.30;;
32533;SDS011;18973;48.580;8.912;2024-01-15T01:05:55;23.27;;;12.00;;
32533;SDS011;18973;48.580;8.912;2024-01-15T01:08:21;25.00;;;12.23;;
32533;SDS011;18973;48.580;8.912;2024-01-15T01:10:47;24.75;;;12.25;;
32533;SDS011;18973;48.580;8.912;2024-01-15T01:13:12;23.40;;;12.30;;
32533;SDS011;18973;48.580;8.912;2024-01-15T01:15:38;23.02;;;12.15;;
32533;SDS011;18973;48.580;8.912;2024-01-15T01:18:04;24.65;;;12.00;;
32533;SDS011;18973;48.580;8.912;2024-01-15T01:20:30;28.38;;;12.40;;
32533;SDS011;18973;48.580;8.912;2024-01-15T01:22:55;24.40;;;10.90;;
32533;SDS011;18973;48.580;8.912;2024-01-15T01:25:21;26.95;;;12.70;;
32533;SDS011;18973;48.580;8.912;2024-01-15T01:27:47;27.25;;;11.57;;
32533;SDS011;18973;48.580;8.912;2024-01-15T01:30:12;28.67;;;11.52;;
32533;SDS011;18973;48.580;8.912;2024-01-15T01:32:38;22.08;;;10.93;;
32533;SDS011;18973;48.580;8.912;2024-01-15T01:35:04;23.48;;;10.65;;
32533;SDS011;18973;48.580;8.912;2024-01-15T01:37:30;21.80;;;11.02;;
32533;SDS011;18973;48.580;8.912;2024-01-15T01:39:56;20.40;;;11.65;;
32533;SDS011;18973;48.580;8.912;2024-01-15T01:42:21;26.27;;;12.23;;
32533;SDS011;18973;48.580;8.912;2024-01-15T01:44:47;24.65;;;10.40;;
32533;SDS011;18973;48.580;8.912;2024-01-15T01:47:12;20.30;;;11.23;;
32533;SDS011;18973;48.580;8.912;2024-01-15T01:49:39;25.25;;;12.35;;
32533;SDS011;18973;48.580;8.912;2024-01-15T01:52:06;22.25;;;11.82;;
32533;SDS011;18973;48.580;8.912;2024-01-15T01:54:33;25.63;;;12.27;;
32533;SDS011;18973;48.580;8.912;2024-01-15T01:57:00;22.02;;;12.57;;
32533;SDS011;18973;48.580;8.912;2024-01-15T01:59:28;24.35;;;11.65;;
32533;SDS011;18973;48.580;8.912;2024-01-15T02:01:55;29.33;;;12.32;;
32533;SDS011;18973;48.580;8.912;2024-01-15T02:04:24;24.08;;;11.50;;
32533;SDS011;18973;48.580;8.912;2024-01-15T02:06:50;20.10;;;10.70;;
32533;SDS011;18973;48.580;8.912;2024-01-15T02:09:17;23.40;;;11.43;;
32533;SDS011;18973;48.580;8.912;2024-01-15T02:11:43;27.25;;;12.95;;
32533;SDS011;18973;48.580;8.912;2024-01-15T02:14:11;22.67;;;11.57;;
32533;SDS011;18973;48.580;8.912;2024-01-15T02:16:37;25.40;;;11.20;;
32533;SDS011;18973;48.580;8.912;2024-01-15T02:19:02;21.35;;;11.20;;
32533;SDS011;18973;48.580;8.912;2024-01-15T02:21:28;25.92;;;10.95;;
32533;SDS011;18973;48.580;8.912;2024-01-15T02:23:55;21.08;;;11.55;;
32533;SDS011;18973;48.580;8.912;2024-01-15T02:26:21;25.50;;;12.05;;
32533;SDS011;18973;48.580;8.912;2024-01-15T02:28:47;21.15;;;11.05;;
32533;SDS011;18973;48.580;8.912;2024-01-15T02:31:13;25.10;;;10.45;;
32533;SDS011;18973;48.580;8.912;2024-01-15T02:33:39;22.00;;;11.48;;
32533;SDS011;18973;48.580;8.912;2024-01-15T02:36:07;25.70;;;11.55;;
32533;SDS011;18973;48.580;8.912;2024-01-15T02:38:33;23.20;;;11.48;;
32533;SDS011;18973;48.580;8.912;2024-01-15T02:40:58;23.70;;;11.57;;
32533;SDS011;18973;48.580;8.912;2024-01-15T02:43:24;25.10;;;12.13;;
32533;SDS011;18973;48.580;8.912;2024-01-15T02:45:50;20.70;;;10.90;;
32533;SDS011;18973;48.580;8.912;2024-01-15T02:48:15;26.52;;;11.30;;
32533;SDS011;18973;48.580;8.912;2024-01-15T02:50:41;23.95;;;11.95;;
32533;SDS011;18973;48.580;8.912;2024-01-15T02:53:07;21.48;;;11.55;;
32533;SDS011;18973;48.580;8.912;2024-01-15T02:55:32;25.60;;;11.60;;
32533;SDS011;18973;48.580;8.912;2024-01-15T02:57:58;27.42;;;11.85;;
32533;SDS011;18973;48.580;8.912;2024-01-15T03:00:24;22.67;;;11.30;;
32533;SDS011;18973;48.580;8.912;2024-01-15T03:02:50;29.20;;;12.75;;
32533;SDS011;18973;48.580;8.912;2024-01-15T03:05:16;25.30;;;11.57;;
32533;SDS011;18973;48.580;8.912;2024-01-15T03:07:42;26.45;;;11.85;;
32533;SDS011;18973;48.580;8.912;2024-01-15T03:10:08;32.10;;;12.73;;
32533;SDS011;18973;48.580;8.912;2024-01-15T03:12:34;25.88;;;11.80;;
32533;SDS011;18973;48.580;8.912;2024-01-15T03:15:00;26.92;;;11.50;;
32533;SDS011;18973;48.580;8.912;2024-01-15T03:17:26;27.88;;;12.63;;
32533;SDS011;18973;48.580;8.912;2024-01-15T03:19:52;26.50;;;11.82;;
32533;SDS011;18973;48.580;8.912;2024-01-15T03:22:18;31.23;;;12.73;;
32533;SDS011;18973;48.580;8.912;2024-01-15T03:24:43;27.13;;;12.40;;
32533;SDS011;18973;48.580;8.912;2024-01-15T03:27:09;25.63;;;12.63;;
32533;SDS011;18973;48.580;8.912;2024-01-15T03:29:35;30.73;;;12.98;;
32533;SDS011;18973;48.580;8.912;2024-01-15T03:32:01;30.33;;;12.88;;
32533;SDS011;18973;48.580;8.912;2024-01-15T03:34:26;29.27;;;13.25;;
32533;SDS011;18973;48.580;8.912;2024-01-15T03:36:52;35.63;;;12.55;;
32533;SDS011;18973;48.580;8.912;2024-01-15T03:39:18;29.63;;;12.82;;
32533;SDS011;18973;48.580;8.912;2024-01-15T03:41:43;31.05;;;14.18;;
32533;SDS011;18973;48.580;8.912;2024-01-15T03:44:09;31.88;;;13.52;;
32533;SDS011;18973;48.580;8.912;2024-01-15T03:46:35;30.75;;;14.35;;
32533;SDS011;18973;48.580;8.912;2024-01-15T03:49:01;34.05;;;14.88;;
32533;SDS011;18973;48.580;8.912;2024-01-15T03:51:27;31.85;;;14.15;;
32533;SDS011;18973;48.580;8.912;2024-01-15T03:53:52;36.70;;;14.02;;
32533;SDS011;18973;48.580;8.912;2024-01-15T03:56:18;28.17;;;13.68;;
32533;SDS011;18973;48.580;8.912;2024-01-15T03:58:44;30.65;;;13.85;;
32533;SDS011;18973;48.580;8.912;2024-01-15T04:01:10;34.65;;;13.20;;
32533;SDS011;18973;48.580;8.912;2024-01-15T04:03:35;40.50;;;14.85;;
32533;SDS011;18973;48.580;8.912;2024-01-15T04:06:02;34.70;;;14.95;;
32533;SDS011;18973;48.580;8.912;2024-01-15T04:08:28;29.40;;;12.85;;
32533;SDS011;18973;48.580;8.912;2024-01-15T04:10:54;31.88;;;13.10;;
32533;SDS011;18973;48.580;8.912;2024-01-15T04:13:20;34.22;;;14.95;;
32533;SDS011;18973;48.580;8.912;2024-01-15T04:15:45;26.75;;;13.23;;
32533;SDS011;18973;48.580;8.912;2024-01-15T04:18:11;26.65;;;13.20;;
32533;SDS011;18973;48.580;8.912;2024-01-15T04:20:37;33.72;;;14.52;;
32533;SDS011;18973;48.580;8.912;2024-01-15T04:23:03;33.75;;;12.95;;
32533;SDS011;18973;48.580;8.912;2024-01-15T04:25:29;34.80;;;13.40;;
32533;SDS011;18973;48.580;8.912;2024-01-15T04:27:55;36.13;;;14.35;;
32533;SDS011;18973;48.580;8.912;2024-01-15T04:30:21;31.88;;;13.75;;
32533;SDS011;18973;48.580;8.912;2024-01-15T04:32:47;30.98;;;14.90;;
32533;SDS011;18973;48.580;8.912;2024-01-15T04:35:12;35.08;;;14.77;;
32533;SDS011;18973;48.580;8.912;2024-01-15T04:37:39;32.85;;;14.40;;
32533;SDS011;18973;48.580;8.912;2024-01-15T04:40:05;32.63;;;14.38;;
32533;SDS011;18973;48.580;8.912;2024-01-15T04:42:32;30.73;;;13.65;;
32533;SDS011;18973;48.580;8.912;2024-01-15T04:44:58;31.98;;;13.85;;
32533;SDS011;18973;48.580;8.912;2024-01-15T04:47:23;34.85;;;13.15;;
32533;SDS011;18973;48.580;8.912;2024-01-15T04:49:49;34.55;;;14.07;;
32533;SDS011;18973;48.580;8.912;2024-01-15T04:52:15;26.67;;;12.63;;
32533;SDS011;18973;48.580;8.912;2024-01-15T04:54:40;27.45;;;12.45;;
32533;SDS011;18973;48.580;8.912;2024-01-15T04:57:06;34.13;;;12.98;;
32533;SDS011;18973;48.580;8.912;2024-01-15T04:59:32;32.30;;;14.00;;
32533;SDS011;18973;48.580;8.912;2024-01-15T05:01:57;28.27;;;12.48;;
32533;SDS011;18973;48.580;8.912;2024-01-15T05:04:23;22.42;;;11.82;;
32533;SDS011;18973;48.580;8.912;2024-01-15T05:06:51;29.67;;;12.93;;
32533;SDS011;18973;48.580;8.912;2024-01-15T05:09:18;30.95;;;12.43;;
32533;SDS011;18973;48.580;8.912;2024-01-15T05:11:44;25.25;;;11.35;;
32533;SDS011;18973;48.580;8.912;2024-01-15T05:14:09;24.92;;;12.13;;
32533;SDS011;18973;48.580;8.912;2024-01-15T05:16:37;28.05;;;12.68;;
32533;SDS011;18973;48.580;8.912;2024-01-15T05:19:03;22.98;;;12.80;;
32533;SDS011;18973;48.580;8.912;2024-01-15T05:21:29;23.80;;;12.18;;
32533;SDS011;18973;48.580;8.912;2024-01-15T05:23:55;24.67;;;11.38;;
32533;SDS011;18973;48.580;8.912;2024-01-15T05:26:20;29.83;;;13.32;;
32533;SDS011;18973;48.580;8.912;2024-01-15T05:28:46;30.27;;;12.63;;
32533;SDS011;18973;48.580;8.912;2024-01-15T05:31:12;21.40;;;11.68;;
32533;SDS011;18973;48.580;8.912;2024-01-15T05:33:37;28.42;;;14.48;;
32533;SDS011;18973;48.580;8.912;2024-01-15T05:36:03;30.88;;;14.05;;
32533;SDS011;18973;48.580;8.912;2024-01-15T05:38:29;27.40;;;12.55;;
32533;SDS011;18973;48.580;8.912;2024-01-15T05:40:55;32.35;;;13.38;;
32533;SDS011;18973;48.580;8.912;2024-01-15T05:43:20;26.92;;;12.55;;
32533;SDS011;18973;48.580;8.912;2024-01-15T05:45:46;26.40;;;13.05;;
32533;SDS011;18973;48.580;8.912;2024-01-15T05:48:12;25.10;;;12.55;;
32533;SDS011;18973;48.580;8.912;2024-01-15T05:50:38;24.40;;;13.05;;
32533;SDS011;18973;48.580;8.912;2024-01-15T05:53:04;31.65;;;13.77;;
32533;SDS011;18973;48.580;8.912;2024-01-15T05:55:30;32.25;;;13.55;;
32533;SDS011;18973;48.580;8.912;2024-01-15T05:57:55;26.15;;;12.57;;
32533;SDS011;18973;48.580;8.912;2024-01-15T06:00:21;29.15;;;12.85;;
32533;SDS011;18973;48.580;8.912;2024-01-15T06:02:47;28.20;;;13.85;;
32533;SDS011;18973;48.580;8.912;2024-01-15T06:05:13;27.27;;;13.85;;
32533;SDS011;18973;48.580;8.912;2024-01-15T06:07:38;31.75;;;14.95;;
32533;SDS011;18973;48.580;8.912;2024-01-15T06:10:04;29.65;;;14.65;;
32533;SDS011;18973;48.580;8.912;2024-01-15T06:12:30;29.02;;;13.98;;
32533;SDS011;18973;48.580;8.912;2024-01-15T06:14:57;28.02;;;14.10;;
32533;SDS011;18973;48.580;8.912;2024-01-15T06:17:23;32.03;;;13.95;;
32533;SDS011;18973;48.580;8.912;2024-01-15T06:19:48;27.98;;;14.00;;
32533;SDS011;18973;48.580;8.912;2024-01-15T06:22:17;27.35;;;14.88;;
32533;SDS011;18973;48.580;8.912;2024-01-15T06:24:43;27.95;;;14.25;;
32533;SDS011;18973;48.580;8.912;2024-01-15T06:27:08;26.05;;;13.45;;
32533;SDS011;18973;48.580;8.912;2024-01-15T06:29:36;26.73;;;13.10;;
32533;SDS011;18973;48.580;8.912;2024-01-15T06:32:03;23.80;;;12.27;;
32533;SDS011;18973;48.580;8.912;2024-01-15T06:34:29;22.67;;;12.30;;
32533;SDS011;18973;48.580;8.912;2024-01-15T06:36:55;26.85;;;11.68;;
32533;SDS011;18973;48.580;8.912;2024-01-15T06:39:20;22.98;;;12.63;;
32533;SDS011;18973;48.580;8.912;2024-01-15T06:41:46;23.10;;;12.57;;
32533;SDS011;18973;48.580;8.912;2024-01-15T06:44:12;22.27;;;12.10;;
32533;SDS011;18973;48.580;8.912;2024-01-15T06:46:43;26.38;;;12.50;;
32533;SDS011;18973;48.580;8.912;2024-01-15T06:49:09;24.77;;;11.85;;
32533;SDS011;18973;48.580;8.912;2024-01-15T06:51:35;23.45;;;12.50;;
32533;SDS011;18973;48.580;8.912;2024-01-15T06:54:01;22.77;;;11.65;;
32533;SDS011;18973;48.580;8.912;2024-01-15T06:56:27;27.23;;;12.45;;
32533;SDS011;18973;48.580;8.912;2024-01-15T06:58:52;24.15;;;12.20;;
32533;SDS011;18973;48.580;8.912;2024-01-15T07:01:18;23.75;;;12.02;;
32533;SDS011;18973;48.580;8.912;2024-01-15T07:03:44;29.45;;;12.90;;
32533;SDS011;18973;48.580;8.912;2024-01-15T07:06:10;26.25;;;12.50;;
32533;SDS011;18973;48.580;8.912;2024-01-15T07:08:36;20.48;;;11.07;;
32533;SDS011;18973;48.580;8.912;2024-01-15T07:11:05;22.85;;;11.43;;
32533;SDS011;18973;48.580;8.912;2024-01-15T07:13:31;28.17;;;12.48;;
32533;SDS011;18973;48.580;8.912;2024-01-15T07:15:58;24.98;;;11.65;;
32533;SDS011;18973;48.580;8.912;2024-01-15T07:18:24;20.77;;;10.70;;
32533;SDS011;18973;48.580;8.912;2024-01-15T07:20:50;24.23;;;12.07;;
32533;SDS011;18973;48.580;8.912;2024-01-15T07:23:16;24.52;;;11.52;;
32533;SDS011;18973;48.580;8.912;2024-01-15T07:25:42;20.85;;;11.38;;
32533;SDS011;18973;48.580;8.912;2024-01-15T07:28:08;21.88;;;11.30;;
32533;SDS011;18973;48.580;8.912;2024-01-15T07:30:34;21.00;;;11.95;;
32533;SDS011;18973;48.580;8.912;2024-01-15T07:33:00;29.30;;;11.88;;
32533;SDS011;18973;48.580;8.912;2024-01-15T07:35:26;22.98;;;11.60;;
32533;SDS011;18973;48.580;8.912;2024-01-15T07:37:52;30.67;;;12.48;;
32533;SDS011;18973;48.580;8.912;2024-01-15T07:40:17;24.25;;;11.82;;
32533;SDS011;18973;48.580;8.912;2024-01-15T07:42:43;23.27;;;11.32;;
32533;SDS011;18973;48.580;8.912;2024-01-15T07:45:10;25.83;;;12.20;;
32533;SDS011;18973;48.580;8.912;2024-01-15T07:47:36;24.10;;;12.10;;
32533;SDS011;18973;48.580;8.912;2024-01-15T07:50:01;21.33;;;11.30;;
32533;SDS011;18973;48.580;8.912;2024-01-15T07:52:27;20.20;;;10.02;;
32533;SDS011;18973;48.580;8.912;2024-01-15T07:54:53;34.30;;;15.95;;
32533;SDS011;18973;48.580;8.912;2024-01-15T07:57:19;23.55;;;12.27;;
32533;SDS011;18973;48.580;8.912;2024-01-15T07:59:45;21.60;;;10.55;;
32533;SDS011;18973;48.580;8.912;2024-01-15T08:02:11;22.83;;;11.25;;
32533;SDS011;18973;48.580;8.912;2024-01-15T08:04:37;20.70;;;10.38;;
32533;SDS011;18973;48.580;8.912;2024-01-15T08:07:05;19.77;;;10.60;;
32533;SDS011;18973;48.580;8.912;2024-01-15T08:09:32;19.73;;;10.57;;
32533;SDS011;18973;48.580;8.912;2024-01-15T08:11:58;16.70;;;9.77;;
32533;SDS011;18973;48.580;8.912;2024-01-15T08:14:24;20.13;;;9.32;;
32533;SDS011;18973;48.580;8.912;2024-01-15T08:16:50;15.63;;;8.75;;
32533;SDS011;18973;48.580;8.912;2024-01-15T08:19:15;14.73;;;8.93;;
32533;SDS011;18973;48.580;8.912;2024-01-15T08:21:41;15.55;;;9.15;;
32533;SDS011;18973;48.580;8.912;2024-01-15T08:24:07;18.52;;;10.10;;
32533;SDS011;18973;48.580;8.912;2024-01-15T08:26:33;16.95;;;9.80;;
32533;SDS011;18973;48.580;8.912;2024-01-15T08:28:59;20.05;;;10.75;;
32533;SDS011;18973;48.580;8.912;2024-01-15T08:31:25;16.20;;;8.63;;
32533;SDS011;18973;48.580;8.912;2024-01-15T08:33:50;13.80;;;8.48;;
32533;SDS011;18973;48.580;8.912;2024-01-15T08:36:16;15.48;;;8.98;;
32533;SDS011;18973;48.580;8.912;2024-01-15T08:38:42;19.60;;;9.23;;
32533;SDS011;18973;48.580;8.912;2024-01-15T08:41:08;16.58;;;9.77;;
32533;SDS011;18973;48.580;8.912;2024-01-15T08:43:34;15.00;;;8.77;;
32533;SDS011;18973;48.580;8.912;2024-01-15T08:46:02;15.63;;;8.68;;
32533;SDS011;18973;48.580;8.912;2024-01-15T08:48:28;16.05;;;8.05;;
32533;SDS011;18973;48.580;8.912;2024-01-15T08:50:54;18.60;;;9.38;;
32533;SDS011;18973;48.580;8.912;2024-01-15T08:53:21;15.45;;;8.82;;
32533;SDS011;18973;48.580;8.912;2024-01-15T08:55:47;15.27;;;8.10;;
32533;SDS011;18973;48.580;8.912;2024-01-15T08:58:13;14.65;;;8.10;;
32533;SDS011;18973;48.580;8.912;2024-01-15T09:00:39;10.95;;;7.22;;
32533;SDS011;18973;48.580;8.912;2024-01-15T09:03:05;15.82;;;8.75;;
32533;SDS011;18973;48.580;8.912;2024-01-15T09:05:31;15.63;;;8.70;;
32533;SDS011;18973;48.580;8.912;2024-01-15T09:07:56;13.80;;;8.18;;
32533;SDS011;18973;48.580;8.912;2024-01-15T09:10:22;20.23;;;8.10;;
32533;SDS011;18973;48.580;8.912;2024-01-15T09:12:48;13.07;;;7.72;;
32533;SDS011;18973;48.580;8.912;2024-01-15T09:15:16;15.18;;;8.48;;
32533;SDS011;18973;48.580;8.912;2024-01-15T09:17:42;14.13;;;8.25;;
32533;SDS011;18973;48.580;8.912;2024-01-15T09:20:08;13.32;;;7.72;;
32533;SDS011;18973;48.580;8.912;2024-01-15T09:22:34;15.98;;;7.60;;
32533;SDS011;18973;48.580;8.912;2024-01-15T09:25:02;14.43;;;8.13;;
32533;SDS011;18973;48.580;8.912;2024-01-15T09:27:29;14.02;;;7.07;;
32533;SDS011;18973;48.580;8.912;2024-01-15T09:29:55;14.00;;;8.00;;
32533;SDS011;18973;48.580;8.912;2024-01-15T09:32:20;16.92;;;8.38;;
32533;SDS011;18973;48.580;8.912;2024-01-15T09:34:46;13.35;;;8.82;;
32533;SDS011;18973;48.580;8.912;2024-01-15T09:37:13;13.93;;;7.88;;
32533;SDS011;18973;48.580;8.912;2024-01-15T09:39:39;16.42;;;9.05;;
32533;SDS011;18973;48.580;8.912;2024-01-15T09:42:05;17.50;;;8.85;;
32533;SDS011;18973;48.580;8.912;2024-01-15T09:44:32;12.25;;;7.53;;
32533;SDS011;18973;48.580;8.912;2024-01-15T09:46:58;9.35;;;6.70;;
32533;SDS011;18973;48.580;8.912;2024-01-15T09:49:24;11.55;;;6.97;;
32533;SDS011;18973;48.580;8.912;2024-01-15T09:51:50;14.95;;;8.98;;
32533;SDS011;18973;48.580;8.912;2024-01-15T09:54:16;12.18;;;7.60;;
32533;SDS011;18973;48.580;8.912;2024-01-15T09:56:45;12.00;;;7.75;;
32533;SDS011;18973;48.580;8.912;2024-01-15T09:59:13;13.98;;;7.03;;
32533;SDS011;18973;48.580;8.912;2024-01-15T10:01:41;15.38;;;7.22;;
32533;SDS011;18973;48.580;8.912;2024-01-15T10:04:09;10.70;;;6.45;;
32533;SDS011;18973;48.580;8.912;2024-01-15T10:06:38;14.10;;;7.03;;
32533;SDS011;18973;48.580;8.912;2024-01-15T10:09:07;9.00;;;6.18;;
32533;SDS011;18973;48.580;8.912;2024-01-15T10:11:33;10.27;;;6.75;;
32533;SDS011;18973;48.580;8.912;2024-01-15T10:13:58;11.45;;;6.82;;
32533;SDS011;18973;48.580;8.912;2024-01-15T10:16:25;10.95;;;6.20;;
32533;SDS011;18973;48.580;8.912;2024-01-15T10:18:51;9.75;;;6.22;;
32533;SDS011;18973;48.580;8.912;2024-01-15T10:21:17;13.68;;;6.60;;
32533;SDS011;18973;48.580;8.912;2024-01-15T10:23:42;11.00;;;6.43;;
32533;SDS011;18973;48.580;8.912;2024-01-15T10:26:09;13.45;;;7.22;;
32533;SDS011;18973;48.580;8.912;2024-01-15T10:28:37;11.38;;;6.85;;
32533;SDS011;18973;48.580;8.912;2024-01-15T10:31:02;9.40;;;6.85;;
32533;SDS011;18973;48.580;8.912;2024-01-15T10:33:29;9.40;;;6.25;;
32533;SDS011;18973;48.580;8.912;2024-01-15T10:35:56;12.50;;;7.43;;
32533;SDS011;18973;48.580;8.912;2024-01-15T10:38:24;19.77;;;6.95;;
32533;SDS011;18973;48.580;8.912;2024-01-15T10:40:54;10.77;;;6.28;;
32533;SDS011;18973;48.580;8.912;2024-01-15T10:43:21;14.68;;;6.50;;
32533;SDS011;18973;48.580;8.912;2024-01-15T10:45:47;13.32;;;6.55;;
32533;SDS011;18973;48.580;8.912;2024-01-15T10:48:16;8.88;;;6.57;;
32533;SDS011;18973;48.580;8.912;2024-01-15T10:50:42;12.77;;;6.43;;
32533;SDS011;18973;48.580;8.912;2024-01-15T10:53:13;11.13;;;6.63;;
32533;SDS011;18973;48.580;8.912;2024-01-15T10:55:40;10.77;;;6.78;;
32533;SDS011;18973;48.580;8.912;2024-01-15T10:58:09;9.75;;;6.32;;
32533;SDS011;18973;48.580;8.912;2024-01-15T11:00:35;12.88;;;7.22;;
32533;SDS011;18973;48.580;8.912;2024-01-15T11:03:03;9.98;;;7.22;;
32533;SDS011;18973;48.580;8.912;2024-01-15T11:05:33;8.80;;;6.65;;
32533;SDS011;18973;48.580;8.912;2024-01-15T11:08:02;14.00;;;7.47;;
32533;SDS011;18973;48.580;8.912;2024-01-15T11:10:40;11.07;;;7.13;;
32533;SDS011;18973;48.580;8.912;2024-01-15T11:13:13;13.88;;;7.65;;
32533;SDS011;18973;48.580;8.912;2024-01-15T11:15:55;11.00;;;7.63;;
32533;SDS011;18973;48.580;8.912;2024-01-15T11:18:21;11.63;;;6.60;;
32533;SDS011;18973;48.580;8.912;2024-01-15T11:23:48;12.40;;;7.47;;
32533;SDS011;18973;48.580;8.912;2024-01-15T11:26:31;8.25;;;6.13;;
32533;SDS011;18973;48.580;8.912;2024-01-15T11:28:58;7.53;;;6.53;;
32533;SDS011;18973;48.580;8.912;2024-01-15T11:31:29;11.65;;;6.75;;
32533;SDS011;18973;48.580;8.912;2024-01-15T11:34:15;10.32;;;6.07;;
32533;SDS011;18973;48.580;8.912;2024-01-15T11:37:00;11.32;;;6.78;;
32533;SDS011;18973;48.580;8.912;2024-01-15T11:41:56;11.30;;;6.72;;
32533;SDS011;18973;48.580;8.912;2024-01-15T11:44:23;13.65;;;7.50;;
32533;SDS011;18973;48.580;8.912;2024-01-15T11:46:59;8.95;;;6.78;;
32533;SDS011;18973;48.580;8.912;2024-01-15T11:52:02;11.80;;;7.78;;
32533;SDS011;18973;48.580;8.912;2024-01-15T11:54:30;9.23;;;6.75;;
32533;SDS011;18973;48.580;8.912;2024-01-15T11:57:02;11.05;;;6.88;;
32533;SDS011;18973;48.580;8.912;2024-01-15T11:59:34;10.93;;;7.85;;
32533;SDS011;18973;48.580;8.912;2024-01-15T12:02:00;9.57;;;7.13;;
32533;SDS011;18973;48.580;8.912;2024-01-15T12:04:27;12.15;;;7.43;;
32533;SDS011;18973;48.580;8.912;2024-01-15T12:06:52;11.88;;;7.53;;
32533;SDS011;18973;48.580;8.912;2024-01-15T12:09:21;13.38;;;7.75;;
32533;SDS011;18973;48.580;8.912;2024-01-15T12:11:48;11.85;;;7.07;;
32533;SDS011;18973;48.580;8.912;2024-01-15T12:14:20;11.15;;;7.72;;
32533;SDS011;18973;48.580;8.912;2024-01-15T12:16:47;10.43;;;7.25;;
32533;SDS011;18973;48.580;8.912;2024-01-15T12:19:13;13.07;;;7.95;;
32533;SDS011;18973;48.580;8.912;2024-01-15T12:21:40;12.00;;;7.70;;
32533;SDS011;18973;48.580;8.912;2024-01-15T12:24:08;14.38;;;8.60;;
32533;SDS011;18973;48.580;8.912;2024-01-15T12:26:34;12.63;;;7.25;;
32533;SDS011;18973;48.580;8.912;2024-01-15T12:29:05;14.05;;;7.80;;
32533;SDS011;18973;48.580;8.912;2024-01-15T12:31:32;21.33;;;8.43;;
32533;SDS011;18973;48.580;8.912;2024-01-15T12:33:57;13.43;;;8.25;;
32533;SDS011;18973;48.580;8.912;2024-01-15T12:36:23;10.50;;;7.97;;
32533;SDS011;18973;48.580;8.912;2024-01-15T12:38:48;14.52;;;8.07;;
32533;SDS011;18973;48.580;8.912;2024-01-15T12:41:14;16.67;;;8.10;;
32533;SDS011;18973;48.580;8.912;2024-01-15T12:43:40;12.30;;;7.68;;
32533;SDS011;18973;48.580;8.912;2024-01-15T12:46:06;12.15;;;7.85;;
32533;SDS011;18973;48.580;8.912;2024-01-15T12:48:32;16.23;;;8.50;;
32533;SDS011;18973;48.580;8.912;2024-01-15T12:50:58;11.15;;;8.25;;
32533;SDS011;18973;48.580;8.912;2024-01-15T12:53:23;12.52;;;8.25;;
32533;SDS011;18973;48.580;8.912;2024-01-15T12:55:49;12.55;;;8.13;;
32533;SDS011;18973;48.580;8.912;2024-01-15T12:58:15;17.25;;;9.85;;
32533;SDS011;18973;48.580;8.912;2024-01-15T13:00:40;20.98;;;10.43;;
32533;SDS011;18973;48.580;8.912;2024-01-15T13:03:06;15.68;;;8.15;;
32533;SDS011;18973;48.580;8.912;2024-01-15T13:05:32;16.27;;;8.85;;
32533;SDS011;18973;48.580;8.912;2024-01-15T13:07:59;12.98;;;7.93;;
32533;SDS011;18973;48.580;8.912;2024-01-15T13:10:24;15.75;;;9.55;;
32533;SDS011;18973;48.580;8.912;2024-01-15T13:12:50;16.63;;;9.02;;
32533;SDS011;18973;48.580;8.912;2024-01-15T13:15:19;25.77;;;10.77;;
32533;SDS011;18973;48.580;8.912;2024-01-15T13:17:44;57.28;;;19.77;;
32533;SDS011;18973;48.580;8.912;2024-01-15T13:20:13;80.00;;;22.95;;
32533;SDS011;18973;48.580;8.912;2024-01-15T13:22:41;49.28;;;17.80;;
32533;SDS011;18973;48.580;8.912;2024-01-15T13:25:08;43.40;;;14.65;;
32533;SDS011;18973;48.580;8.912;2024-01-15T13:27:34;37.72;;;14.38;;
32533;SDS011;18973;48.580;8.912;2024-01-15T13:30:00;23.95;;;11.32;;
32533;SDS011;18973;48.580;8.912;2024-01-15T13:32:27;16.67;;;9.48;;
32533;SDS011;18973;48.580;8.912;2024-01-15T13:34:56;19.13;;;10.55;;
32533;SDS011;18973;48.580;8.912;2024-01-15T13:37:22;42.95;;;15.23;;
32533;SDS011;18973;48.580;8.912;2024-01-15T13:39:51;21.27;;;12.05;;
32533;SDS011;18973;48.580;8.912;2024-01-15T13:42:18;18.05;;;9.52;;
32533;SDS011;18973;48.580;8.912;2024-01-15T13:44:45;23.05;;;10.55;;
32533;SDS011;18973;48.580;8.912;2024-01-15T13:47:11;18.08;;;9.80;;
32533;SDS011;18973;48.580;8.912;2024-01-15T13:49:37;51.10;;;18.25;;
32533;SDS011;18973;48.580;8.912;2024-01-15T13:52:03;24.83;;;10.20;;
32533;SDS011;18973;48.580;8.912;2024-01-15T13:54:29;19.27;;;9.32;;
32533;SDS011;18973;48.580;8.912;2024-01-15T13:56:55;12.80;;;8.20;;
32533;SDS011;18973;48.580;8.912;2024-01-15T13:59:21;14.85;;;8.95;;
32533;SDS011;18973;48.580;8.912;2024-01-15T14:01:48;16.35;;;8.25;;
32533;SDS011;18973;48.580;8.912;2024-01-15T14:04:13;13.48;;;8.10;;
32533;SDS011;18973;48.580;8.912;2024-01-15T14:06:39;18.00;;;8.00;;
32533;SDS011;18973;48.580;8.912;2024-01-15T14:09:05;10.55;;;7.80;;
32533;SDS011;18973;48.580;8.912;2024-01-15T14:11:30;14.45;;;8.20;;
32533;SDS011;18973;48.580;8.912;2024-01-15T14:13:56;14.85;;;8.45;;
32533;SDS011;18973;48.580;8.912;2024-01-15T14:16:22;16.17;;;7.95;;
32533;SDS011;18973;48.580;8.912;2024-01-15T14:18:48;13.02;;;8.63;;
32533;SDS011;18973;48.580;8.912;2024-01-15T14:21:13;12.52;;;7.65;;
32533;SDS011;18973;48.580;8.912;2024-01-15T14:23:40;19.33;;;8.38;;
32533;SDS011;18973;48.580;8.912;2024-01-15T14:26:05;11.13;;;7.70;;
32533;SDS011;18973;48.580;8.912;2024-01-15T14:28:31;13.68;;;7.82;;